Time;durP1;ratioP1;P1;durP2;ratioP2;P2;SDS_P1;SDS_P2;PMS_P1;PMS_P2;Temp;Humidity;BMP_temperature;BMP_pressure;BME280_temperature;BME280_humidity;BME280_pressure;Samples;Min_cycle;Max_cycle;Signal;HPM_P1;HPM_P2
2021/05/02 00:00:29;;;;;;;43.30;23.27;;;6.70;99.90;;;;;;5035745;28;20848;-75
2021/05/02 00:02:57;;;;;;;37.50;21.67;;;6.60;99.90;;;;;;5035994;28;20486;-75
2021/05/02 00:05:27;;;;;;;36.77;20.83;;;6.50;99.90;;;;;;5035974;28;20451;-75
2021/05/02 00:07:54;;;;;;;36.97;21.03;;;6.50;99.90;;;;;;5035948;28;20481;-75
2021/05/02 00:10:21;;;;;;;40.90;21.60;;;6.40;99.90;;;;;;5035923;28;20454;-75
2021/05/02 00:12:48;;;;;;;37.07;20.70;;;6.40;99.90;;;;;;5035894;28;20450;-75
2021/05/02 00:15:16;;;;;;;38.77;21.60;;;6.40;99.90;;;;;;5035829;28;20473;-75
2021/05/02 00:17:45;;;;;;;42.07;22.00;;;6.40;99.90;;;;;;5035723;28;20467;-76
2021/05/02 00:20:14;;;;;;;39.73;20.50;;;6.40;99.90;;;;;;5035784;28;20856;-75
2021/05/02 00:22:44;;;;;;;40.80;23.73;;;6.30;99.90;;;;;;5035113;28;20834;-75
2021/05/02 00:25:13;;;;;;;43.73;21.67;;;6.30;99.90;;;;;;5035740;28;20443;-75
2021/05/02 00:27:39;;;;;;;36.73;22.30;;;6.30;99.90;;;;;;5035394;28;21004;-75
2021/05/02 00:30:07;;;;;;;36.87;22.30;;;6.30;99.90;;;;;;5035583;28;20451;-75
2021/05/02 00:32:36;;;;;;;38.43;23.50;;;6.30;99.90;;;;;;5035519;28;20454;-75
2021/05/02 00:35:02;;;;;;;36.17;21.63;;;6.20;99.90;;;;;;5035450;28;20469;-75
2021/05/02 00:37:29;;;;;;;35.30;21.83;;;6.30;99.90;;;;;;5035325;28;20462;-75
2021/05/02 00:39:56;;;;;;;39.53;22.87;;;6.20;99.90;;;;;;5035425;28;20449;-75
2021/05/02 00:42:25;;;;;;;38.10;22.33;;;6.30;99.90;;;;;;5035261;28;20490;-75
2021/05/02 00:44:58;;;;;;;40.97;22.07;;;6.20;99.90;;;;;;5035284;28;20446;-76
2021/05/02 00:47:32;;;;;;;40.70;23.70;;;6.20;99.90;;;;;;5035188;28;20482;-75
2021/05/02 00:50:04;;;;;;;36.23;22.07;;;6.20;99.90;;;;;;5035275;28;20450;-75
2021/05/02 00:52:35;;;;;;;41.00;22.40;;;6.20;99.90;;;;;;5035202;28;20453;-75
2021/05/02 00:55:07;;;;;;;41.53;21.47;;;6.20;99.90;;;;;;5034446;28;20434;-75
2021/05/02 00:57:44;;;;;;;38.13;22.20;;;6.20;99.90;;;;;;5035051;28;20462;-75
2021/05/02 01:00:11;;;;;;;40.03;21.77;;;6.20;99.90;;;;;;5034773;28;20932;-75
2021/05/02 01:02:38;;;;;;;37.87;21.97;;;6.20;99.90;;;;;;5034546;28;20489;-75
2021/05/02 01:05:06;;;;;;;37.03;21.70;;;6.20;99.90;;;;;;5034919;28;20454;-76
2021/05/02 01:07:36;;;;;;;37.87;22.03;;;6.20;99.90;;;;;;5034772;28;20513;-75
2021/05/02 01:10:07;;;;;;;35.93;21.70;;;6.20;99.90;;;;;;5034828;28;20435;-75
2021/05/02 01:12:38;;;;;;;34.90;20.07;;;6.20;99.90;;;;;;5034834;28;20430;-75
2021/05/02 01:15:06;;;;;;;37.07;21.63;;;6.20;99.90;;;;;;5035167;28;20868;-75
2021/05/02 01:17:38;;;;;;;32.67;20.10;;;6.20;99.90;;;;;;5034602;28;20620;-75
2021/05/02 01:20:06;;;;;;;33.93;20.93;;;6.10;99.90;;;;;;5034662;28;20439;-77
2021/05/02 01:22:37;;;;;;;37.20;20.07;;;6.20;99.90;;;;;;5034006;28;20494;-77
2021/05/02 01:25:05;;;;;;;33.20;19.70;;;6.20;99.90;;;;;;5034580;28;20426;-77
2021/05/02 01:27:33;;;;;;;33.87;20.70;;;6.10;99.90;;;;;;5034257;28;20467;-77
2021/05/02 01:30:01;;;;;;;33.90;19.53;;;6.10;99.90;;;;;;5034425;28;20450;-78
2021/05/02 01:32:29;;;;;;;32.57;20.13;;;6.10;99.90;;;;;;5034383;28;20434;-78
2021/05/02 01:34:56;;;;;;;33.47;21.47;;;6.10;99.90;;;;;;5034003;28;20443;-78
2021/05/02 01:37:23;;;;;;;29.13;18.57;;;6.10;99.90;;;;;;5034148;28;20467;-78
2021/05/02 01:39:49;;;;;;;33.00;19.87;;;6.00;99.90;;;;;;5034252;28;20458;-78
2021/05/02 01:42:16;;;;;;;29.90;18.23;;;6.00;99.90;;;;;;5034114;28;20540;-75
2021/05/02 01:44:42;;;;;;;34.23;20.40;;;6.00;99.90;;;;;;5033805;28;20980;-75
2021/05/02 01:47:11;;;;;;;27.97;17.97;;;6.00;99.90;;;;;;5034065;28;20459;-75
2021/05/02 01:49:45;;;;;;;33.77;19.50;;;5.90;99.90;;;;;;5034050;28;20496;-75
2021/05/02 01:52:13;;;;;;;30.53;18.23;;;5.90;99.90;;;;;;5034073;28;20483;-75
2021/05/02 01:54:39;;;;;;;24.73;15.77;;;5.90;99.90;;;;;;5034520;28;20451;-75
2021/05/02 01:57:08;;;;;;;24.63;16.60;;;5.90;99.90;;;;;;5033837;28;20470;-75
2021/05/02 01:59:37;;;;;;;28.20;18.37;;;5.90;99.90;;;;;;5034305;28;20817;-75
2021/05/02 02:02:04;;;;;;;31.87;19.53;;;5.90;99.90;;;;;;5033736;28;20486;-75
2021/05/02 02:04:34;;;;;;;33.30;19.57;;;5.90;99.90;;;;;;5033536;28;20442;-75
2021/05/02 02:07:00;;;;;;;25.47;17.53;;;5.90;99.90;;;;;;5033270;28;20823;-75
2021/05/02 02:09:29;;;;;;;26.40;17.33;;;5.90;99.90;;;;;;5033463;28;21079;-75
2021/05/02 02:11:55;;;;;;;27.50;18.50;;;6.00;99.90;;;;;;5033714;28;20450;-75
2021/05/02 02:14:23;;;;;;;27.67;18.03;;;6.00;99.90;;;;;;5033412;28;20842;-75
2021/05/02 02:16:51;;;;;;;28.70;18.83;;;5.90;99.90;;;;;;5033578;28;20516;-75
2021/05/02 02:19:17;;;;;;;28.30;18.70;;;5.90;99.90;;;;;;5033639;28;20504;-75
2021/05/02 02:21:46;;;;;;;28.03;18.90;;;5.90;99.90;;;;;;5033225;28;21011;-76
2021/05/02 02:24:13;;;;;;;26.87;18.00;;;5.90;99.90;;;;;;5033572;28;20904;-75
2021/05/02 02:26:51;;;;;;;28.57;18.57;;;5.90;99.90;;;;;;5033427;28;20458;-75
2021/05/02 02:29:18;;;;;;;31.10;18.37;;;5.90;99.90;;;;;;5033176;28;20434;-75
2021/05/02 02:31:46;;;;;;;27.57;18.20;;;5.80;99.90;;;;;;5033432;28;20451;-76
2021/05/02 02:34:15;;;;;;;28.20;18.10;;;5.80;99.90;;;;;;5033131;28;20903;-77
2021/05/02 02:36:43;;;;;;;27.10;18.00;;;5.90;99.90;;;;;;5033280;28;20462;-77
2021/05/02 02:39:10;;;;;;;30.27;18.40;;;5.80;99.90;;;;;;5033364;28;20443;-77
2021/05/02 02:41:38;;;;;;;33.23;19.70;;;5.80;99.90;;;;;;5033251;28;20491;-77
2021/05/02 02:44:08;;;;;;;31.60;19.20;;;5.80;99.90;;;;;;5032968;28;20815;-77
2021/05/02 02:46:40;;;;;;;30.40;19.40;;;5.80;99.90;;;;;;5033209;28;20470;-77
2021/05/02 02:49:10;;;;;;;31.73;18.87;;;5.80;99.90;;;;;;5033332;28;20792;-77
2021/05/02 02:51:40;;;;;;;25.23;18.20;;;5.80;99.90;;;;;;5033191;28;20447;-77
2021/05/02 02:54:10;;;;;;;30.70;19.20;;;5.80;99.90;;;;;;5033289;28;20430;-77
2021/05/02 02:56:40;;;;;;;35.90;19.80;;;5.80;99.90;;;;;;5033170;28;20543;-77
2021/05/02 02:59:12;;;;;;;26.10;17.57;;;5.80;99.90;;;;;;5032899;28;20797;-77
2021/05/02 03:01:42;;;;;;;30.87;19.67;;;5.80;99.90;;;;;;5033278;28;20470;-77
2021/05/02 03:04:10;;;;;;;26.13;18.07;;;5.70;99.90;;;;;;5033169;28;20447;-77
2021/05/02 03:06:38;;;;;;;28.37;18.77;;;5.80;99.90;;;;;;5032740;28;20470;-77
2021/05/02 03:09:04;;;;;;;30.60;18.43;;;5.80;99.90;;;;;;5033523;28;20538;-77
2021/05/02 03:11:31;;;;;;;30.93;18.00;;;5.70;99.90;;;;;;5033072;28;20447;-77
2021/05/02 03:13:57;;;;;;;30.90;20.03;;;5.60;99.90;;;;;;5033006;28;20458;-77
2021/05/02 03:16:27;;;;;;;30.30;18.73;;;5.60;99.90;;;;;;5032658;28;20478;-77
2021/05/02 03:18:58;;;;;;;27.33;18.87;;;5.70;99.90;;;;;;5035429;28;20446;-77
2021/05/02 03:21:32;;;;;;;28.20;19.50;;;5.70;99.90;;;;;;5036611;28;20511;-77
2021/05/02 03:24:03;;;;;;;31.43;19.63;;;5.70;99.90;;;;;;5036572;28;20434;-77
2021/05/02 03:26:31;;;;;;;27.63;19.13;;;5.70;99.90;;;;;;5036701;28;20466;-77
2021/05/02 03:28:59;;;;;;;29.47;20.90;;;5.70;99.90;;;;;;5036752;28;20454;-75
2021/05/02 03:31:30;;;;;;;30.03;19.43;;;5.60;99.90;;;;;;5036354;28;21043;-76
2021/05/02 03:34:02;;;;;;;31.07;19.70;;;5.60;99.90;;;;;;5036363;28;20910;-76
2021/05/02 03:36:33;;;;;;;34.13;20.93;;;5.70;99.90;;;;;;5036525;28;20470;-75
2021/05/02 03:39:01;;;;;;;30.40;20.80;;;5.60;99.90;;;;;;5036601;28;20489;-76
2021/05/02 03:41:28;;;;;;;34.83;21.57;;;5.60;99.90;;;;;;5036391;28;20486;-76
2021/05/02 03:43:54;;;;;;;32.10;21.83;;;5.60;99.90;;;;;;5036440;28;20452;-76
2021/05/02 03:46:24;;;;;;;36.40;21.60;;;5.60;99.90;;;;;;5036097;28;20513;-76
2021/05/02 03:48:53;;;;;;;33.37;22.00;;;5.60;99.90;;;;;;5036597;28;20482;-80
2021/05/02 03:51:20;;;;;;;35.43;21.57;;;5.60;99.90;;;;;;5036893;28;20438;-80
2021/05/02 03:53:46;;;;;;;36.60;22.03;;;5.60;99.90;;;;;;5036361;28;20439;-80
2021/05/02 03:56:31;;;;;;;35.23;21.37;;;5.60;99.90;;;;;;5036385;28;20473;-80
2021/05/02 03:59:06;;;;;;;34.10;21.83;;;5.60;99.90;;;;;;5036321;28;20902;-80
2021/05/02 04:01:32;;;;;;;35.17;22.20;;;5.60;99.90;;;;;;5035968;28;20989;-77
2021/05/02 04:03:59;;;;;;;31.70;19.33;;;5.60;99.90;;;;;;5035791;28;20953;-77
2021/05/02 04:06:25;;;;;;;33.07;20.10;;;5.60;99.90;;;;;;5036004;28;20474;-77
2021/05/02 04:08:52;;;;;;;30.30;20.70;;;5.70;99.90;;;;;;5035708;28;21007;-77
2021/05/02 04:11:19;;;;;;;29.20;19.67;;;5.60;99.90;;;;;;5035976;28;20505;-77
2021/05/02 04:13:46;;;;;;;31.00;19.73;;;5.60;99.90;;;;;;5035891;28;20451;-77
2021/05/02 04:16:14;;;;;;;30.20;20.37;;;5.70;99.90;;;;;;5035519;28;20942;-77
2021/05/02 04:18:40;;;;;;;31.30;21.17;;;5.60;99.90;;;;;;5035833;28;20451;-77
2021/05/02 04:21:06;;;;;;;31.93;19.07;;;5.60;99.90;;;;;;5035896;28;20447;-77
2021/05/02 04:23:33;;;;;;;33.30;19.47;;;5.60;99.90;;;;;;5035706;28;20478;-77
2021/05/02 04:25:59;;;;;;;32.63;21.27;;;5.60;99.90;;;;;;5035660;28;20435;-77
2021/05/02 04:28:27;;;;;;;30.17;19.43;;;5.60;99.90;;;;;;5035313;28;20970;-77
2021/05/02 04:30:53;;;;;;;32.80;20.53;;;5.50;99.90;;;;;;5034539;28;20466;-80
2021/05/02 04:33:19;;;;;;;37.07;21.87;;;5.60;99.90;;;;;;5034805;28;20496;-77
2021/05/02 04:35:46;;;;;;;28.83;19.67;;;5.50;99.90;;;;;;5035176;28;20453;-77
2021/05/02 04:38:12;;;;;;;28.00;18.53;;;5.50;99.90;;;;;;5035385;28;20470;-77
2021/05/02 04:40:38;;;;;;;31.97;19.80;;;5.50;99.90;;;;;;5035965;28;20504;-77
2021/05/02 04:43:04;;;;;;;33.30;22.03;;;5.50;99.90;;;;;;5035720;28;20486;-77
2021/05/02 04:45:31;;;;;;;31.43;20.50;;;5.50;99.90;;;;;;5034983;28;20947;-77
2021/05/02 04:47:58;;;;;;;34.40;21.57;;;5.50;99.90;;;;;;5035208;28;20473;-77
2021/05/02 04:50:24;;;;;;;31.13;19.93;;;5.50;99.90;;;;;;5035226;28;20457;-77
2021/05/02 04:52:50;;;;;;;34.50;21.77;;;5.50;99.90;;;;;;5034933;28;20907;-77
2021/05/02 04:55:17;;;;;;;32.27;21.63;;;5.50;99.90;;;;;;5035140;28;20450;-77
2021/05/02 04:57:43;;;;;;;33.67;21.70;;;5.60;99.90;;;;;;5034716;28;20982;-77
2021/05/02 05:00:10;;;;;;;30.30;19.93;;;5.60;99.90;;;;;;5035033;28;20457;-77
2021/05/02 05:02:37;;;;;;;34.07;21.40;;;5.60;99.90;;;;;;5034898;28;20847;-78
2021/05/02 05:05:04;;;;;;;29.73;20.37;;;5.60;99.90;;;;;;5034944;28;20450;-77
2021/05/02 05:07:30;;;;;;;29.77;19.33;;;5.60;99.90;;;;;;5034794;28;20466;-77
2021/05/02 05:09:56;;;;;;;31.93;20.93;;;5.50;99.90;;;;;;5034845;28;20461;-77
2021/05/02 05:12:22;;;;;;;35.43;21.73;;;5.60;99.90;;;;;;5034501;28;20446;-77
2021/05/02 05:14:48;;;;;;;32.97;21.00;;;5.70;99.90;;;;;;5034733;28;20501;-77
2021/05/02 05:17:15;;;;;;;31.53;19.60;;;5.60;99.90;;;;;;5034729;28;20985;-77
2021/05/02 05:19:42;;;;;;;32.77;20.37;;;5.70;99.90;;;;;;5034678;28;20449;-77
2021/05/02 05:22:08;;;;;;;31.83;20.40;;;5.70;99.90;;;;;;5034103;28;20482;-77
2021/05/02 05:24:34;;;;;;;36.60;21.03;;;5.70;99.90;;;;;;5034545;28;20446;-77
2021/05/02 05:27:00;;;;;;;29.50;19.97;;;5.70;99.90;;;;;;5034493;28;20830;-77
2021/05/02 05:29:27;;;;;;;28.40;19.40;;;5.70;99.90;;;;;;5034448;28;20500;-77
2021/05/02 05:31:53;;;;;;;28.87;19.40;;;5.70;99.90;;;;;;5034441;28;20447;-77
2021/05/02 05:34:19;;;;;;;31.10;20.37;;;5.70;99.90;;;;;;5034389;28;20451;-77
2021/05/02 05:36:46;;;;;;;31.80;19.80;;;5.70;99.90;;;;;;5034254;28;20521;-77
2021/05/02 05:39:12;;;;;;;28.27;19.23;;;5.70;99.90;;;;;;5033977;28;20955;-77
2021/05/02 05:41:39;;;;;;;34.50;21.83;;;5.80;99.90;;;;;;5033907;28;20489;-77
2021/05/02 05:44:05;;;;;;;31.77;20.20;;;5.70;99.90;;;;;;5034220;28;20446;-77
2021/05/02 05:46:31;;;;;;;32.33;20.60;;;5.70;99.90;;;;;;5034094;28;20489;-76
2021/05/02 05:48:58;;;;;;;33.23;21.70;;;5.70;99.90;;;;;;5034142;28;20457;-77
2021/05/02 05:51:24;;;;;;;28.20;18.80;;;5.90;99.90;;;;;;5033762;28;21052;-78
2021/05/02 05:53:51;;;;;;;32.00;19.60;;;6.00;99.90;;;;;;5034057;28;20451;-78
2021/05/02 05:56:17;;;;;;;31.00;19.10;;;6.10;99.90;;;;;;5033644;28;20466;-78
2021/05/02 05:58:43;;;;;;;32.50;20.30;;;6.20;99.90;;;;;;5033962;28;20446;-78
2021/05/02 06:01:09;;;;;;;23.70;17.20;;;6.30;99.90;;;;;;5033828;28;20462;-78
2021/05/02 06:03:36;;;;;;;27.43;17.73;;;6.40;99.90;;;;;;5033631;28;20888;-78
2021/05/02 06:06:02;;;;;;;25.90;17.60;;;6.50;99.90;;;;;;5033761;28;20446;-78
2021/05/02 06:08:28;;;;;;;26.90;18.40;;;6.60;99.90;;;;;;5033619;28;20465;-78
2021/05/02 06:10:56;;;;;;;25.37;18.30;;;6.70;99.90;;;;;;5033985;28;20439;-79
2021/05/02 06:13:22;;;;;;;26.20;17.70;;;6.70;99.90;;;;;;5033724;28;20504;-80
2021/05/02 06:15:48;;;;;;;28.67;19.70;;;6.80;99.90;;;;;;5033410;28;20508;-80
2021/05/02 06:18:15;;;;;;;25.80;17.33;;;6.90;99.90;;;;;;5033586;28;20521;-80
2021/05/02 06:20:41;;;;;;;24.37;17.20;;;6.90;99.90;;;;;;5033628;28;20447;-80
2021/05/02 06:23:07;;;;;;;24.63;17.50;;;6.90;99.90;;;;;;5033033;28;20486;-80
2021/05/02 06:25:33;;;;;;;26.93;17.13;;;7.00;99.90;;;;;;5033250;28;21003;-80
2021/05/02 06:28:01;;;;;;;30.57;18.43;;;7.00;99.90;;;;;;5033465;28;20470;-80
2021/05/02 06:30:27;;;;;;;26.10;17.47;;;7.10;99.90;;;;;;5033469;28;20549;-80
2021/05/02 06:32:53;;;;;;;25.27;17.30;;;7.40;99.90;;;;;;5033081;28;20957;-81
2021/05/02 06:35:20;;;;;;;24.23;17.23;;;7.70;99.90;;;;;;5033353;28;20454;-80
2021/05/02 06:37:46;;;;;;;22.30;15.57;;;8.10;99.90;;;;;;5033396;28;20497;-81
2021/05/02 06:40:13;;;;;;;22.17;16.63;;;8.40;99.90;;;;;;5033876;28;20450;-81
2021/05/02 06:42:40;;;;;;;25.50;16.00;;;8.90;99.90;;;;;;5033108;28;20489;-76
2021/05/02 06:45:08;;;;;;;21.83;15.00;;;9.60;99.90;;;;;;5033287;28;20488;-76
2021/05/02 06:47:34;;;;;;;18.80;15.33;;;9.90;99.90;;;;;;5033177;28;20529;-76
2021/05/02 06:50:00;;;;;;;21.43;15.57;;;10.20;99.90;;;;;;5032933;28;20938;-76
2021/05/02 06:52:26;;;;;;;20.57;15.60;;;10.30;99.90;;;;;;5033287;28;20447;-76
2021/05/02 06:54:54;;;;;;;21.90;14.80;;;10.20;99.90;;;;;;5037327;28;20447;-76
2021/05/02 06:57:20;;;;;;;19.00;14.57;;;10.30;99.90;;;;;;5037217;28;20835;-76
2021/05/02 06:59:46;;;;;;;18.40;15.20;;;10.20;99.90;;;;;;5036963;28;20458;-76
2021/05/02 07:02:13;;;;;;;19.87;14.67;;;10.20;99.90;;;;;;5037174;28;20482;-80
2021/05/02 07:04:40;;;;;;;25.23;15.60;;;10.20;99.90;;;;;;5036881;28;20963;-80
2021/05/02 07:07:06;;;;;;;16.47;14.67;;;10.50;99.90;;;;;;5036762;28;21000;-79
2021/05/02 07:09:33;;;;;;;17.70;13.83;;;11.00;99.90;;;;;;5037287;28;20500;-81
2021/05/02 07:11:59;;;;;;;17.63;13.60;;;11.50;99.90;;;;;;5037040;28;20446;-81
2021/05/02 07:14:25;;;;;;;17.40;13.80;;;12.00;99.90;;;;;;5036313;28;20960;-81
2021/05/02 07:16:52;;;;;;;17.00;14.27;;;12.60;99.90;;;;;;5034503;28;20851;-81
2021/05/02 07:19:21;;;;;;;15.80;12.83;;;13.30;99.90;;;;;;5037455;28;20447;-81
2021/05/02 07:21:47;;;;;;;14.20;12.70;;;13.90;99.90;;;;;;5036501;28;20837;-81
2021/05/02 07:24:15;;;;;;;14.00;12.47;;;15.10;99.90;;;;;;5036550;28;20488;-81
2021/05/02 07:26:41;;;;;;;14.43;12.93;;;15.40;99.90;;;;;;5036425;28;20978;-81
2021/05/02 07:29:08;;;;;;;13.40;12.03;;;15.50;99.90;;;;;;5036756;28;20457;-81
2021/05/02 07:31:34;;;;;;;16.60;14.50;;;15.30;99.90;;;;;;5036379;28;20949;-81
2021/05/02 07:34:00;;;;;;;16.47;13.37;;;15.30;99.90;;;;;;5036705;28;20449;-81
2021/05/02 07:36:27;;;;;;;15.90;14.20;;;15.40;99.90;;;;;;5036568;28;20496;-82
2021/05/02 07:38:54;;;;;;;14.60;12.17;;;15.70;99.90;;;;;;5036606;28;20435;-82
2021/05/02 07:41:20;;;;;;;12.93;11.67;;;15.60;99.90;;;;;;5036787;28;20412;-82
2021/05/02 07:43:46;;;;;;;13.90;12.53;;;15.50;99.90;;;;;;5035534;28;20443;-82
2021/05/02 07:46:12;;;;;;;12.40;11.20;;;15.10;99.90;;;;;;5037117;28;20791;-82
2021/05/02 07:48:39;;;;;;;13.23;11.70;;;14.50;99.90;;;;;;5036125;28;20430;-81
2021/05/02 07:51:05;;;;;;;13.57;12.23;;;14.30;99.90;;;;;;5036331;28;20433;-82
2021/05/02 07:53:32;;;;;;;14.80;11.73;;;14.60;99.90;;;;;;5036299;28;20438;-81
2021/05/02 07:55:58;;;;;;;12.97;11.70;;;14.70;99.90;;;;;;5035948;28;20445;-82
2021/05/02 07:58:25;;;;;;;16.00;12.03;;;14.60;99.90;;;;;;5035888;28;20438;-82
2021/05/02 08:00:51;;;;;;;13.77;12.03;;;14.60;99.90;;;;;;5036217;28;20422;-81
2021/05/02 08:03:17;;;;;;;14.43;12.53;;;14.30;99.90;;;;;;5036057;28;20474;-82
2021/05/02 08:05:44;;;;;;;13.13;11.73;;;14.20;99.90;;;;;;5036023;28;20493;-82
2021/05/02 08:08:10;;;;;;;12.73;11.43;;;14.40;99.90;;;;;;5035965;28;20481;-81
2021/05/02 08:10:37;;;;;;;17.07;12.10;;;14.30;98.90;;;;;;5035624;28;20454;-81
2021/05/02 08:13:03;;;;;;;13.20;11.87;;;13.80;99.90;;;;;;5043802;28;20441;-82
2021/05/02 08:15:30;;;;;;;14.70;12.70;;;13.60;99.90;;;;;;5035684;28;20905;-82
2021/05/02 08:17:57;;;;;;;12.47;11.17;;;13.30;99.90;;;;;;5035601;28;20474;-82
2021/05/02 08:20:24;;;;;;;16.07;12.50;;;13.20;99.90;;;;;;5035533;28;20498;-81
2021/05/02 08:22:51;;;;;;;15.30;12.90;;;12.80;99.90;;;;;;5035386;28;20548;-82
2021/05/02 08:25:17;;;;;;;15.10;12.10;;;12.60;99.90;;;;;;5035637;28;20443;-78
2021/05/02 08:27:46;;;;;;;23.03;14.07;;;12.50;99.90;;;;;;5035203;28;20473;-81
2021/05/02 08:30:14;;;;;;;15.77;13.80;;;12.30;99.90;;;;;;5035707;28;20442;-81
2021/05/02 08:32:40;;;;;;;13.07;11.63;;;12.20;99.90;;;;;;5035295;28;20419;-82
2021/05/02 08:35:08;;;;;;;15.80;13.00;;;12.20;99.90;;;;;;5035555;28;20508;-82
2021/05/02 08:37:34;;;;;;;15.57;12.47;;;12.10;99.90;;;;;;5035052;28;20481;-81
2021/05/02 08:40:00;;;;;;;14.57;12.50;;;12.10;99.90;;;;;;5035462;28;20453;-82
2021/05/02 08:42:26;;;;;;;14.33;12.83;;;12.10;99.90;;;;;;5035043;28;20489;-77
2021/05/02 08:44:54;;;;;;;15.43;12.80;;;12.10;99.90;;;;;;5035403;28;20526;-76
2021/05/02 08:47:20;;;;;;;14.17;12.57;;;12.10;99.90;;;;;;5035260;28;20471;-76
2021/05/02 08:49:46;;;;;;;15.00;12.60;;;12.10;99.90;;;;;;5035102;28;20462;-76
2021/05/02 08:52:12;;;;;;;18.63;13.17;;;12.20;99.90;;;;;;5034882;28;20451;-76
2021/05/02 08:54:39;;;;;;;16.60;12.67;;;12.60;99.90;;;;;;5035169;28;20447;-76
2021/05/02 08:57:06;;;;;;;18.20;12.40;;;13.10;99.90;;;;;;5034730;28;20470;-76
2021/05/02 08:59:32;;;;;;;16.07;11.30;;;13.50;99.90;;;;;;5034749;28;20459;-76
2021/05/02 09:02:00;;;;;;;13.03;11.70;;;13.70;99.90;;;;;;5034746;28;20988;-77
2021/05/02 09:04:26;;;;;;;14.77;13.17;;;14.60;99.90;;;;;;5034975;28;20457;-77
2021/05/02 09:06:53;;;;;;;15.17;13.07;;;15.90;96.60;;;;;;5034900;28;20833;-77
2021/05/02 09:09:19;;;;;;;13.47;11.90;;;16.90;96.80;;;;;;5034859;28;20446;-77
2021/05/02 09:11:47;;;;;;;13.10;11.80;;;17.90;93.10;;;;;;5034847;28;20473;-77
2021/05/02 09:14:27;;;;;;;13.10;11.80;;;18.50;89.10;;;;;;5034801;28;20450;-77
2021/05/02 09:16:55;;;;;;;15.77;13.50;;;18.80;87.00;;;;;;5033844;28;21068;-77
2021/05/02 09:19:23;;;;;;;14.70;13.20;;;18.60;80.50;;;;;;5034403;28;21038;-77
2021/05/02 09:21:50;;;;;;;16.13;13.97;;;17.80;80.00;;;;;;5034102;28;20483;-77
2021/05/02 09:24:24;;;;;;;13.93;12.60;;;16.90;80.80;;;;;;5034618;28;20838;-77
2021/05/02 09:27:07;;;;;;;13.33;12.03;;;16.20;83.50;;;;;;5034142;28;20836;-77
2021/05/02 09:29:36;;;;;;;15.23;13.63;;;15.70;83.50;;;;;;5034559;28;20419;-77
2021/05/02 09:32:03;;;;;;;17.43;14.13;;;15.20;84.30;;;;;;5034189;28;20423;-77
2021/05/02 09:34:31;;;;;;;15.83;14.13;;;14.80;88.70;;;;;;5034443;28;20450;-77
2021/05/02 09:37:02;;;;;;;17.27;15.43;;;14.40;90.30;;;;;;5034270;28;20462;-77
2021/05/02 09:39:36;;;;;;;16.60;14.40;;;14.10;88.00;;;;;;5034385;28;20435;-77
2021/05/02 09:42:04;;;;;;;16.80;14.53;;;13.70;86.40;;;;;;5034258;28;20467;-77
2021/05/02 09:44:38;;;;;;;19.33;14.43;;;13.50;88.00;;;;;;5034232;28;20435;-77
2021/05/02 09:47:29;;;;;;;15.37;13.63;;;13.30;91.30;;;;;;5033844;28;20945;-77
2021/05/02 09:50:18;;;;;;;18.63;14.70;;;13.10;90.80;;;;;;5033823;28;21012;-77
2021/05/02 09:52:51;;;;;;;18.90;15.27;;;12.90;91.60;;;;;;5029377;28;20459;-77
2021/05/02 09:55:36;;;;;;;16.60;13.50;;;12.80;92.00;;;;;;5034067;28;20426;-77
2021/05/02 09:58:05;;;;;;;17.50;13.90;;;12.70;93.00;;;;;;5033883;28;20496;-77
2021/05/02 10:00:35;;;;;;;17.73;13.27;;;12.90;92.00;;;;;;5033978;28;20435;-77
2021/05/02 10:03:05;;;;;;;15.40;12.17;;;13.00;91.50;;;;;;5033864;28;20478;-77
2021/05/02 10:05:32;;;;;;;18.80;14.03;;;13.30;91.20;;;;;;5033902;28;20439;-76
2021/05/02 10:07:59;;;;;;;16.80;13.70;;;13.50;89.70;;;;;;5033883;28;20463;-78
2021/05/02 10:10:25;;;;;;;17.87;13.20;;;13.30;86.60;;;;;;5033779;28;20887;-77
2021/05/02 10:12:54;;;;;;;15.70;14.00;;;13.20;88.50;;;;;;5033451;28;20952;-77
2021/05/02 10:15:21;;;;;;;16.13;14.10;;;13.00;90.50;;;;;;5033738;28;20435;-76
2021/05/02 10:17:52;;;;;;;15.43;13.70;;;12.80;91.50;;;;;;5033315;28;20467;-77
2021/05/02 10:20:20;;;;;;;19.50;14.23;;;12.60;91.20;;;;;;5033657;28;20435;-77
2021/05/02 10:22:49;;;;;;;15.10;12.77;;;12.30;89.80;;;;;;5033208;28;20497;-77
2021/05/02 10:25:15;;;;;;;18.80;13.70;;;12.50;92.20;;;;;;5033588;28;20442;-77
2021/05/02 10:27:45;;;;;;;15.03;13.37;;;13.00;91.90;;;;;;5032633;28;20470;-77
2021/05/02 10:30:19;;;;;;;17.67;13.97;;;13.40;92.30;;;;;;5034104;28;20430;-77
2021/05/02 10:32:50;;;;;;;15.30;13.07;;;13.80;91.40;;;;;;5033478;28;20441;-76
2021/05/02 10:35:16;;;;;;;21.30;15.17;;;14.10;88.40;;;;;;5034311;28;20825;-77
2021/05/02 10:37:53;;;;;;;16.17;14.47;;;14.00;87.60;;;;;;5033294;28;20474;-77
2021/05/02 10:40:31;;;;;;;15.60;13.90;;;14.00;86.40;;;;;;5033460;28;20438;-77
2021/05/02 10:43:01;;;;;;;16.63;13.27;;;14.10;85.40;;;;;;5033350;28;20473;-77
2021/05/02 10:45:48;;;;;;;17.50;12.90;;;14.10;86.10;;;;;;5033074;28;20530;-76
2021/05/02 10:48:48;;;;;;;16.93;13.77;;;14.30;83.90;;;;;;5033281;28;20470;-77
2021/05/02 10:51:34;;;;;;;15.70;12.80;;;14.50;83.70;;;;;;5033289;28;20522;-77
2021/05/02 10:54:10;;;;;;;17.20;12.67;;;14.80;82.30;;;;;;5032841;28;20973;-77
2021/05/02 10:56:52;;;;;;;13.03;11.73;;;14.80;82.60;;;;;;5032855;28;20999;-77
2021/05/02 10:59:22;;;;;;;14.30;12.77;;;15.10;82.60;;;;;;5045741;28;20464;-77
2021/05/02 11:01:48;;;;;;;13.70;12.30;;;15.10;80.20;;;;;;5053028;28;20457;-77
2021/05/02 11:04:15;;;;;;;14.57;12.90;;;15.00;79.00;;;;;;5053092;28;20444;-77
2021/05/02 11:06:53;;;;;;;14.80;13.30;;;14.80;76.90;;;;;;5052953;28;20493;-77
2021/05/02 11:09:27;;;;;;;14.27;12.40;;;14.50;76.60;;;;;;5052791;28;20929;-77
2021/05/02 11:11:56;;;;;;;14.60;13.10;;;14.00;80.50;;;;;;5046995;28;20443;-77
2021/05/02 11:14:36;;;;;;;13.67;12.27;;;13.70;81.30;;;;;;5033322;28;20480;-77
2021/05/02 11:17:22;;;;;;;15.47;13.20;;;13.40;79.90;;;;;;5032968;28;20520;-77
2021/05/02 11:19:48;;;;;;;16.33;13.43;;;13.10;82.10;;;;;;5033017;28;20431;-77
2021/05/02 11:22:16;;;;;;;16.40;13.47;;;12.90;83.60;;;;;;5032614;28;20589;-77
2021/05/02 11:24:55;;;;;;;14.13;12.63;;;12.90;82.60;;;;;;5032970;28;20504;-77
2021/05/02 11:27:42;;;;;;;16.63;12.77;;;13.00;78.80;;;;;;5032581;28;20815;-77
2021/05/02 11:30:18;;;;;;;14.30;12.80;;;13.00;81.10;;;;;;5032819;28;20801;-77
2021/05/02 11:32:45;;;;;;;15.70;14.10;;;13.00;84.00;;;;;;5032928;28;20533;-77
2021/05/02 11:35:13;;;;;;;14.97;13.03;;;12.90;87.00;;;;;;5032645;28;20446;-77
2021/05/02 11:37:40;;;;;;;15.67;14.10;;;12.60;88.20;;;;;;5032536;28;20466;-77
2021/05/02 11:40:34;;;;;;;16.40;14.70;;;12.20;91.50;;;;;;5035524;28;20538;-77
2021/05/02 11:43:02;;;;;;;17.40;15.30;;;11.60;95.40;;;;;;5036542;28;20480;-77
2021/05/02 11:45:31;;;;;;;19.10;15.97;;;11.20;97.10;;;;;;5036552;28;20431;-77
2021/05/02 11:47:58;;;;;;;20.50;17.00;;;10.70;99.90;;;;;;5036404;28;20478;-77
2021/05/02 11:50:25;;;;;;;19.57;16.83;;;10.40;99.90;;;;;;5036106;28;20920;-77
2021/05/02 11:52:52;;;;;;;20.33;16.80;;;10.20;99.90;;;;;;5036408;28;20442;-77
2021/05/02 11:55:29;;;;;;;20.87;16.33;;;10.20;99.90;;;;;;5036316;28;20441;-77
2021/05/02 11:57:57;;;;;;;19.73;15.73;;;10.30;99.90;;;;;;5036203;28;20545;-77
2021/05/02 12:00:37;;;;;;;18.73;15.77;;;10.40;99.90;;;;;;5036258;28;20426;-77
2021/05/02 12:03:03;;;;;;;22.20;16.07;;;10.50;99.90;;;;;;5036099;28;20462;-77
2021/05/02 12:05:29;;;;;;;16.67;12.13;;;10.50;99.90;;;;;;5036164;28;20431;-77
2021/05/02 12:08:09;;;;;;;12.03;10.53;;;10.60;99.90;;;;;;5036018;28;20466;-77
2021/05/02 12:10:37;;;;;;;15.43;11.40;;;10.60;99.90;;;;;;5036059;28;20435;-77
2021/05/02 12:13:05;;;;;;;14.93;12.70;;;10.60;99.90;;;;;;5035779;28;20431;-77
2021/05/02 12:15:32;;;;;;;14.73;12.50;;;10.50;99.90;;;;;;5035627;28;20899;-77
2021/05/02 12:17:58;;;;;;;14.73;12.63;;;10.40;99.90;;;;;;5035870;28;20475;-77
2021/05/02 12:20:25;;;;;;;16.77;13.30;;;10.30;99.90;;;;;;5035903;28;20424;-77
2021/05/02 12:22:52;;;;;;;16.50;13.30;;;10.20;99.90;;;;;;5157220;22;20515;-78
2021/05/02 12:25:18;;;;;;;17.53;13.20;;;10.20;99.90;;;;;;4996418;28;20448;-78
2021/05/02 12:27:56;;;;;;;14.87;12.50;;;10.30;99.90;;;;;;4996273;28;20479;-77
2021/05/02 12:30:23;;;;;;;13.50;11.80;;;10.50;99.90;;;;;;4996012;28;20436;-77
2021/05/02 12:32:50;;;;;;;14.17;11.43;;;10.70;99.90;;;;;;4995969;28;20953;-77
2021/05/02 12:35:16;;;;;;;12.50;11.17;;;10.90;99.90;;;;;;4995963;28;20916;-76
2021/05/02 12:37:43;;;;;;;12.73;11.43;;;11.00;99.90;;;;;;4996094;28;20467;-78
2021/05/02 12:40:11;;;;;;;12.60;11.30;;;11.20;99.90;;;;;;4996455;28;20479;-78